Observation data for Levelland on 02/10/2018      Previous  Date  Next       Current Mesonet Observations  Soil Data  Daily Summary Page  Observations in Plain Language
KLD1 100600Z 11003KT 03/M08 A2992 RMK A01 T00341084  RH  042%=      5-min Rain = 0
KLD1 100605Z 11004KT 03/M08 A2992 RMK A01 T00341083  RH  042%=      5-min Rain = 0
KLD1 100610Z 11005KT 03/M09 A2992 RMK A01 T00331086  RH  042%=      5-min Rain = 0
KLD1 100615Z 10005KT 03/M09 A2992 RMK A01 T00281088  RH  043%=      5-min Rain = 0
KLD1 100620Z 09006KT 02/M09 A2992 RMK A01 T00201093  RH  043%=      5-min Rain = 0
KLD1 100625Z 10006KT 02/M09 A2992 RMK A01 T00201088  RH  045%=      5-min Rain = 0
KLD1 100630Z 11006KT 03/M08 A2992 RMK A01 T00271084  RH  044%=      5-min Rain = 0
KLD1 100635Z 11005KT 03/M09 A2992 RMK A01 T00291087  RH  043%=      5-min Rain = 0
KLD1 100640Z 10004KT 03/M09 A2992 RMK A01 T00251090  RH  043%=      5-min Rain = 0
KLD1 100645Z 09005KT 02/M09 A2991 RMK A01 T00171093  RH  044%=      5-min Rain = 0
KLD1 100650Z 10006KT 01/M09 A2991 RMK A01 T00141091  RH  046%=      5-min Rain = 0
KLD1 100655Z 10006KT 02/M09 A2991 RMK A01 T00191088  RH  046%=      5-min Rain = 0
KLD1 100700Z 08006KT 02/M10 A2991 RMK A01 T00151095  RH  044%=      5-min Rain = 0
KLD1 100705Z 07008KT 01/M09 A2991 RMK A01 T00081089  RH  049%=      5-min Rain = 0
KLD1 100710Z 05010KT 02/M08 A2992 RMK A01 T00171081  RH  049%=      5-min Rain = 0
KLD1 100715Z 05011KT 02/M08 A2993 RMK A01 T00221082  RH  047%=      5-min Rain = 0
KLD1 100720Z 04011KT 02/M08 A2993 RMK A01 T00241081  RH  046%=      5-min Rain = 0
KLD1 100725Z 04012KT 02/M08 A2994 RMK A01 T00211084  RH  046%=      5-min Rain = 0
KLD1 100730Z 05010KT 02/M09 A2994 RMK A01 T00171085  RH  047%=      5-min Rain = 0
KLD1 100735Z 04013KT 02/M08 A2994 RMK A01 T00151084  RH  049%=      5-min Rain = 0
KLD1 100740Z 05014KT 01/M08 A2994 RMK A01 T00141083  RH  049%=      5-min Rain = 0
KLD1 100745Z 04014KT 01/M08 A2994 RMK A01 T00141083  RH  049%=      5-min Rain = 0
KLD1 100750Z 04014KT 01/M08 A2995 RMK A01 T00111084  RH  050%=      5-min Rain = 0
KLD1 100755Z 04015KT 01/M09 A2995 RMK A01 T00081085  RH  050%=      5-min Rain = 0
KLD1 100800Z 04015G20KT 01/M09 A2995 RMK A01 T00051086  RH  051%=      5-min Rain = 0
KLD1 100805Z 05015KT 00/M09 A2995 RMK A01 T00031086  RH  052%=      5-min Rain = 0
KLD1 100810Z 04016G22KT 00/09 A2996 RMK A01 T00000-87  RH  053%=      5-min Rain = 0
KLD1 100815Z 04017G22KT M00/M09 A2996 RMK A01 T10041089  RH  053%=      5-min Rain = 0
KLD1 100820Z 04016G21KT M01/M09 A2996 RMK A01 T10071090  RH  054%=      5-min Rain = 0
KLD1 100825Z 04015KT M01/M09 A2996 RMK A01 T10091091  RH  055%=      5-min Rain = 0
KLD1 100830Z 04016G21KT M01/M09 A2996 RMK A01 T10111091  RH  055%=      5-min Rain = 0
KLD1 100835Z 04015G21KT M01/M09 A2996 RMK A01 T10131093  RH  055%=      5-min Rain = 0
KLD1 100840Z 04017G22KT M02/M10 A2996 RMK A01 T10151095  RH  055%=      5-min Rain = 0
KLD1 100845Z 04015G20KT M02/M10 A2996 RMK A01 T10171096  RH  056%=      5-min Rain = 0
KLD1 100850Z 04013KT M02/M10 A2996 RMK A01 T10191097  RH  056%=      5-min Rain = 0
KLD1 100855Z 04016G22KT M02/M10 A2996 RMK A01 T10201096  RH  057%=      5-min Rain = 0
KLD1 100900Z 03017G23KT M02/M10 A2996 RMK A01 T10211097  RH  057%=      5-min Rain = 0
KLD1 100905Z 03017KT M02/M10 A2997 RMK A01 T10221097  RH  057%=      5-min Rain = 0
KLD1 100910Z 04015KT M02/M10 A2997 RMK A01 T10241098  RH  057%=      5-min Rain = 0
KLD1 100915Z 03013KT M03/M10 A2997 RMK A01 T10261099  RH  058%=      5-min Rain = 0
KLD1 100920Z 03013G18KT M03/M10 A2997 RMK A01 T10271099  RH  059%=      5-min Rain = 0
KLD1 100925Z 03016KT M03/M10 A2997 RMK A01 T10291100  RH  059%=      5-min Rain = 0
KLD1 100930Z 03017KT M03/M10 A2997 RMK A01 T10321102  RH  059%=      5-min Rain = 0
KLD1 100935Z 03016G21KT M04/M11 A2997 RMK A01 T10351105  RH  059%=      5-min Rain = 0
KLD1 100940Z 03017G23KT M04/M11 A2997 RMK A01 T10371107  RH  059%=      5-min Rain = 0
KLD1 100945Z 03015G20KT M04/M11 A2997 RMK A01 T10391108  RH  059%=      5-min Rain = 0
KLD1 100950Z 03014G19KT M04/M11 A2997 RMK A01 T10401109  RH  060%=      5-min Rain = 0
KLD1 100955Z 03015KT M04/M11 A2997 RMK A01 T10431110  RH  060%=      5-min Rain = 0
KLD1 101000Z 03017G22KT M05/M11 A2996 RMK A01 T10451112  RH  060%=      5-min Rain = 0
KLD1 101005Z 04016G21KT M05/M11 A2996 RMK A01 T10471113  RH  060%=      5-min Rain = 0
KLD1 101010Z 03014G19KT M05/M11 A2997 RMK A01 T10481114  RH  061%=      5-min Rain = 0
KLD1 101015Z 03012KT M05/M11 A2998 RMK A01 T10491114  RH  061%=      5-min Rain = 0
KLD1 101020Z 03016G22KT M05/M12 A2998 RMK A01 T10501115  RH  061%=      5-min Rain = 0
KLD1 101025Z 03014G19KT M05/M12 A2998 RMK A01 T10521116  RH  062%=      5-min Rain = 0
KLD1 101030Z 02016G21KT M05/M12 A2998 RMK A01 T10541117  RH  062%=      5-min Rain = 0
KLD1 101035Z 02016KT M06/M12 A2998 RMK A01 T10571118  RH  063%=      5-min Rain = 0
KLD1 101040Z 02013KT M06/M12 A2998 RMK A01 T10581119  RH  063%=      5-min Rain = 0
KLD1 101045Z 03013G18KT M06/M12 A2998 RMK A01 T10601120  RH  063%=      5-min Rain = 0
KLD1 101050Z 02017KT M06/M12 A2998 RMK A01 T10621121  RH  064%=      5-min Rain = 0
KLD1 101055Z 02016KT M06/M12 A2999 RMK A01 T10641122  RH  064%=      5-min Rain = 0
KLD1 101100Z 02017KT M07/M12 A2999 RMK A01 T10661123  RH  065%=      5-min Rain = 0
KLD1 101105Z 02016KT M07/M12 A2999 RMK A01 T10671123  RH  065%=      5-min Rain = 0
KLD1 101110Z 02014KT M07/M12 A2999 RMK A01 T10681123  RH  065%=      5-min Rain = 0
KLD1 101115Z 02015G20KT M07/M12 A2999 RMK A01 T10691124  RH  066%=      5-min Rain = 0
KLD1 101120Z 02015G20KT M07/M12 A2999 RMK A01 T10701124  RH  066%=      5-min Rain = 0
KLD1 101125Z 03014KT M07/M12 A30 RMK A01 T10711124  RH  066%=      5-min Rain = 0
KLD1 101130Z 03013KT M07/M13 A30 RMK A01 T10721125  RH  067%=      5-min Rain = 0
KLD1 101135Z 02012KT M07/M13 A30 RMK A01 T10731126  RH  067%=      5-min Rain = 0
KLD1 101140Z 02012G17KT M07/M13 A30 RMK A01 T10741126  RH  067%=      5-min Rain = 0
KLD1 101145Z 02014KT M08/M13 A30 RMK A01 T10751126  RH  068%=      5-min Rain = 0
KLD1 101150Z 02012KT M08/M13 A30 RMK A01 T10771127  RH  068%=      5-min Rain = 0
KLD1 101155Z 01015KT M08/M13 A30 RMK A01 T10791128  RH  069%=      5-min Rain = 0
KLD1 101200Z 01016KT M08/M13 A30 RMK A01 T10801128  RH  069%=      5-min Rain = 0
KLD1 101205Z 02015KT M08/M13 A30 RMK A01 T10811127  RH  070%=      5-min Rain = 0
KLD1 101210Z 02014G19KT M08/M13 A30 RMK A01 T10821127  RH  071%=      5-min Rain = 0
KLD1 101215Z 01015G20KT M08/M13 A30 RMK A01 T10821127  RH  071%=      5-min Rain = 0
KLD1 101220Z 02013KT M08/M13 A30 RMK A01 T10831127  RH  072%=      5-min Rain = 0
KLD1 101225Z 02014KT M08/M13 A30 RMK A01 T10841127  RH  072%=      5-min Rain = 0
KLD1 101230Z 02013KT M08/M13 A30 RMK A01 T10841127  RH  072%=      5-min Rain = 0
KLD1 101235Z 02013KT M08/M13 A30 RMK A01 T10841127  RH  073%=      5-min Rain = 0
KLD1 101240Z 02013KT M09/M13 A30 RMK A01 T10851126  RH  073%=      5-min Rain = 0
KLD1 101245Z 02013G18KT M09/M13 A30 RMK A01 T10851126  RH  073%=      5-min Rain = 0
KLD1 101250Z 02013KT M09/M13 A30 RMK A01 T10851125  RH  074%=      5-min Rain = 0
KLD1 101255Z 02011G16KT M09/M13 A30 RMK A01 T10851125  RH  074%=      5-min Rain = 0
KLD1 101300Z 02012KT M09/M13 A30 RMK A01 T10851125  RH  074%=      5-min Rain = 0
KLD1 101305Z 02012KT M09/M12 A3001 RMK A01 T10851124  RH  074%=      5-min Rain = 0
KLD1 101310Z 02012KT M09/M12 A3001 RMK A01 T10851124  RH  075%=      5-min Rain = 0
KLD1 101315Z 02013KT M09/M12 A3001 RMK A01 T10851123  RH  075%=      5-min Rain = 0
KLD1 101320Z 02013KT M09/M12 A3001 RMK A01 T10851122  RH  075%=      5-min Rain = 0
KLD1 101325Z 01013G18KT M09/M12 A3001 RMK A01 T10851122  RH  076%=      5-min Rain = 0
KLD1 101330Z 01014KT M09/M12 A3002 RMK A01 T10851121  RH  076%=      5-min Rain = 0
KLD1 101335Z 01014G19KT M08/M12 A3002 RMK A01 T10841121  RH  076%=      5-min Rain = 0
KLD1 101340Z 01013KT M08/M12 A3002 RMK A01 T10841121  RH  076%=      5-min Rain = 0
KLD1 101345Z 01013KT M09/M12 A3002 RMK A01 T10851121  RH  076%=      5-min Rain = 0
KLD1 101350Z 01012KT M09/M12 A3002 RMK A01 T10851121  RH  076%=      5-min Rain = 0
KLD1 101355Z 01010KT M08/M12 A3002 RMK A01 T10841121  RH  076%=      5-min Rain = 0
KLD1 101400Z 01010KT M08/M12 A3002 RMK A01 T10841121  RH  076%=      5-min Rain = 0
KLD1 101405Z 01012KT M08/M12 A3002 RMK A01 T10831120  RH  076%=      5-min Rain = 0
KLD1 101410Z 01011KT M08/M12 A3001 RMK A01 T10821120  RH  075%=      5-min Rain = 0
KLD1 101415Z 01011KT M08/M12 A3001 RMK A01 T10801120  RH  074%=      5-min Rain = 0
KLD1 101420Z 01012G17KT M08/M12 A3001 RMK A01 T10781119  RH  073%=      5-min Rain = 0
KLD1 101425Z 01014KT M08/M12 A3001 RMK A01 T10761120  RH  072%=      5-min Rain = 0
KLD1 101430Z 01015KT M08/M12 A3001 RMK A01 T10751120  RH  071%=      5-min Rain = 0
KLD1 101435Z 02015G20KT M07/M12 A3001 RMK A01 T10731119  RH  071%=      5-min Rain = 0
KLD1 101440Z 02014KT M07/M12 A3001 RMK A01 T10711119  RH  070%=      5-min Rain = 0
KLD1 101445Z 01014G20KT M07/M12 A3001 RMK A01 T10691118  RH  069%=      5-min Rain = 0
KLD1 101450Z 02016KT M07/M12 A3001 RMK A01 T10691119  RH  069%=      5-min Rain = 0
KLD1 101455Z 01014KT M07/M12 A3001 RMK A01 T10671118  RH  068%=      5-min Rain = 0
KLD1 101500Z 01015KT M07/M12 A3001 RMK A01 T10651118  RH  067%=      5-min Rain = 0
KLD1 101505Z 01015KT M06/M12 A3001 RMK A01 T10641117  RH  067%=      5-min Rain = 0
KLD1 101510Z 01017KT M06/M12 A3001 RMK A01 T10631117  RH  066%=      5-min Rain = 0
KLD1 101515Z 01015KT M06/M12 A3001 RMK A01 T10621116  RH  066%=      5-min Rain = 0
KLD1 101520Z 01016KT M06/M12 A3001 RMK A01 T10591116  RH  065%=      5-min Rain = 0
KLD1 101525Z 01014KT M06/M12 A3001 RMK A01 T10571115  RH  065%=      5-min Rain = 0
KLD1 101530Z 01016KT M06/M12 A3001 RMK A01 T10561115  RH  064%=      5-min Rain = 0
KLD1 101535Z 01014G19KT M05/M11 A3001 RMK A01 T10541114  RH  063%=      5-min Rain = 0
KLD1 101540Z 01013KT M05/M11 A3001 RMK A01 T10491113  RH  062%=      5-min Rain = 0
KLD1 101545Z 02011G16KT M05/M11 A3001 RMK A01 T10461113  RH  060%=      5-min Rain = 0
KLD1 101550Z 00011KT M05/M11 A3001 RMK A01 T10461113  RH  060%=      5-min Rain = 0
KLD1 101555Z 01011KT M05/M11 A3001 RMK A01 T10461113  RH  060%=      5-min Rain = 0
KLD1 101600Z 00011KT M04/M11 A3001 RMK A01 T10431112  RH  059%=      5-min Rain = 0
KLD1 101605Z 01011KT M04/M11 A3001 RMK A01 T10421112  RH  059%=      5-min Rain = 0
KLD1 101610Z 01011KT M04/M11 A3001 RMK A01 T10391111  RH  058%=      5-min Rain = 0
KLD1 101615Z 01011KT M04/M11 A3001 RMK A01 T10381111  RH  057%=      5-min Rain = 0
KLD1 101620Z 00011KT M04/M11 A3001 RMK A01 T10351110  RH  057%=      5-min Rain = 0
KLD1 101625Z 01012KT M03/M11 A3001 RMK A01 T10321110  RH  056%=      5-min Rain = 0
KLD1 101630Z 01012KT M03/M11 A3001 RMK A01 T10331111  RH  056%=      5-min Rain = 0
KLD1 101635Z 01011KT M03/M11 A30 RMK A01 T10311109  RH  055%=      5-min Rain = 0
KLD1 101640Z 02011KT M03/M11 A30 RMK A01 T10291109  RH  055%=      5-min Rain = 0
KLD1 101645Z 02010G15KT M03/M11 A30 RMK A01 T10271109  RH  054%=      5-min Rain = 0
KLD1 101650Z 01010G15KT M02/M11 A30 RMK A01 T10231108  RH  053%=      5-min Rain = 0
KLD1 101655Z 35008KT M02/M11 A30 RMK A01 T10221109  RH  052%=      5-min Rain = 0
KLD1 101700Z 04009KT M02/M11 A2999 RMK A01 T10221108  RH  052%=      5-min Rain = 0
KLD1 101705Z 02008G13KT M02/M11 A2999 RMK A01 T10211107  RH  053%=      5-min Rain = 0
KLD1 101710Z 01009KT M02/M11 A2999 RMK A01 T10171107  RH  051%=      5-min Rain = 0
KLD1 101715Z 02008G14KT M02/M11 A2999 RMK A01 T10151105  RH  051%=      5-min Rain = 0
KLD1 101720Z 02009KT M01/M11 A2999 RMK A01 T10111106  RH  049%=      5-min Rain = 0
KLD1 101725Z 02009KT M01/M11 A2998 RMK A01 T10121105  RH  050%=      5-min Rain = 0
KLD1 101730Z 02009KT M01/M11 A2998 RMK A01 T10101106  RH  049%=      5-min Rain = 0
KLD1 101735Z 02008KT M01/M11 A2998 RMK A01 T10111106  RH  049%=      5-min Rain = 0
KLD1 101740Z 02007G12KT M01/M11 A2998 RMK A01 T10111105  RH  050%=      5-min Rain = 0
KLD1 101745Z 03008KT M01/M11 A2998 RMK A01 T10081105  RH  048%=      5-min Rain = 0
KLD1 101750Z 02007KT M01/M11 A2998 RMK A01 T10071105  RH  048%=      5-min Rain = 0
KLD1 101755Z 02007KT M01/M10 A2998 RMK A01 T10081104  RH  049%=      5-min Rain = 0
KLD1 101800Z 03007KT M00/M10 A2998 RMK A01 T10041104  RH  048%=      5-min Rain = 0
KLD1 101805Z 02006KT M00/M10 A2997 RMK A01 T10011103  RH  047%=      5-min Rain = 0
KLD1 101810Z 04007G14KT 00/10 A2997 RMK A01 T00000-103  RH  046%=      5-min Rain = 0
KLD1 101815Z 03006KT 01/M10 A2996 RMK A01 T00051103  RH  045%=      5-min Rain = 0
KLD1 101820Z 02006KT 00/M10 A2996 RMK A01 T00041103  RH  045%=      5-min Rain = 0
KLD1 101825Z 05006G11KT 01/M10 A2996 RMK A01 T00061102  RH  045%=      5-min Rain = 0
KLD1 101830Z 05007KT 01/M10 A2995 RMK A01 T00091103  RH  044%=      5-min Rain = 0
KLD1 101835Z 04006KT 01/M10 A2995 RMK A01 T00091102  RH  044%=      5-min Rain = 0
KLD1 101840Z 35006KT 01/M10 A2995 RMK A01 T00081103  RH  044%=      5-min Rain = 0
KLD1 101845Z 01005KT 01/M10 A2995 RMK A01 T00071102  RH  045%=      5-min Rain = 0
KLD1 101850Z 04006KT 01/M10 A2994 RMK A01 T00081102  RH  044%=      5-min Rain = 0
KLD1 101855Z 00006KT 01/M10 A2994 RMK A01 T00121100  RH  044%=      5-min Rain = 0
KLD1 101900Z 02006KT 01/M10 A2993 RMK A01 T00121100  RH  044%=      5-min Rain = 0
KLD1 101905Z 04004G9KT 01/M10 A2992 RMK A01 T00141099  RH  043%=      5-min Rain = 0
KLD1 101910Z 03005KT 01/M10 A2992 RMK A01 T00141102  RH  042%=      5-min Rain = 0
KLD1 101915Z 02006KT 01/M10 A2992 RMK A01 T00141103  RH  042%=      5-min Rain = 0
KLD1 101920Z 05007KT 01/M10 A2991 RMK A01 T00141104  RH  042%=      5-min Rain = 0
KLD1 101925Z 05005KT 01/M10 A2991 RMK A01 T00091103  RH  043%=      5-min Rain = 0
KLD1 101930Z 07005KT 01/M10 A299 RMK A01 T00121100  RH  044%=      5-min Rain = 0
KLD1 101935Z 02004KT 02/M10 A299 RMK A01 T00211100  RH  041%=      5-min Rain = 0
KLD1 101940Z 06004KT 02/M10 A2989 RMK A01 T00211102  RH  040%=      5-min Rain = 0
KLD1 101945Z 09004KT 02/M10 A2988 RMK A01 T00171103  RH  041%=      5-min Rain = 0
KLD1 101950Z 07004KT 02/M10 A2988 RMK A01 T00201101  RH  041%=      5-min Rain = 0
KLD1 101955Z 06004KT 02/M10 A2988 RMK A01 T00221101  RH  040%=      5-min Rain = 0
KLD1 102000Z 06005KT 02/M10 A2987 RMK A01 T00211100  RH  041%=      5-min Rain = 0
KLD1 102005Z 10004KT 02/M10 A2987 RMK A01 T00231100  RH  040%=      5-min Rain = 0
KLD1 102010Z 11005KT 03/M10 A2987 RMK A01 T00271097  RH  040%=      5-min Rain = 0
KLD1 102015Z 08003G8KT 03/M10 A2986 RMK A01 T00331099  RH  038%=      5-min Rain = 0
KLD1 102020Z 09004KT 03/M10 A2986 RMK A01 T00291099  RH  039%=      5-min Rain = 0
KLD1 102025Z 07003KT 03/M10 A2985 RMK A01 T00281099  RH  039%=      5-min Rain = 0
KLD1 102030Z 06005KT 03/M10 A2985 RMK A01 T00271099  RH  039%=      5-min Rain = 0
KLD1 102035Z 05004KT 03/M10 A2985 RMK A01 T00271098  RH  040%=      5-min Rain = 0
KLD1 102040Z 06004KT 03/M10 A2985 RMK A01 T00311098  RH  039%=      5-min Rain = 0
KLD1 102045Z 09005KT 03/M10 A2985 RMK A01 T00331098  RH  038%=      5-min Rain = 0
KLD1 102050Z 08004KT 03/M10 A2984 RMK A01 T00321097  RH  039%=      5-min Rain = 0
KLD1 102055Z 08005KT 03/M10 A2985 RMK A01 T00311097  RH  039%=      5-min Rain = 0
KLD1 102100Z 12003KT 03/M10 A2985 RMK A01 T00301096  RH  040%=      5-min Rain = 0
KLD1 102105Z 14006KT 03/M10 A2984 RMK A01 T00321096  RH  039%=      5-min Rain = 0
KLD1 102110Z 12004KT 03/M10 A2984 RMK A01 T00331095  RH  039%=      5-min Rain = 0
KLD1 102115Z 12004KT 03/M10 A2984 RMK A01 T00341096  RH  038%=      5-min Rain = 0
KLD1 102120Z 07004KT 03/M10 A2984 RMK A01 T00341096  RH  038%=      5-min Rain = 0
KLD1 102125Z 12003KT 03/M10 A2984 RMK A01 T00341095  RH  039%=      5-min Rain = 0
KLD1 102130Z 15004KT 04/M10 A2984 RMK A01 T00371095  RH  038%=      5-min Rain = 0
KLD1 102135Z 15002KT 04/M10 A2983 RMK A01 T00401095  RH  037%=      5-min Rain = 0
KLD1 102140Z 12004KT 04/M10 A2983 RMK A01 T00401096  RH  037%=      5-min Rain = 0
KLD1 102145Z 09003KT 04/M10 A2983 RMK A01 T00381095  RH  037%=      5-min Rain = 0
KLD1 102150Z 08003KT 04/M10 A2983 RMK A01 T00381095  RH  037%=      5-min Rain = 0
KLD1 102155Z 10005KT 04/M10 A2983 RMK A01 T00401096  RH  037%=      5-min Rain = 0
KLD1 102200Z 10005KT 04/M10 A2982 RMK A01 T00391096  RH  037%=      5-min Rain = 0
KLD1 102205Z 09004KT 04/M10 A2982 RMK A01 T00391096  RH  037%=      5-min Rain = 0
KLD1 102210Z 12004KT 04/M10 A2983 RMK A01 T00421096  RH  036%=      5-min Rain = 0
KLD1 102215Z 12004KT 04/M10 A2983 RMK A01 T00421097  RH  036%=      5-min Rain = 0
KLD1 102220Z 11004KT 04/M10 A2982 RMK A01 T00411097  RH  036%=      5-min Rain = 0
KLD1 102225Z 12005KT 04/M10 A2982 RMK A01 T00401097  RH  036%=      5-min Rain = 0
KLD1 102230Z 10005KT 04/M10 A2982 RMK A01 T00401097  RH  037%=      5-min Rain = 0
KLD1 102235Z 11005KT 04/M10 A2982 RMK A01 T00401097  RH  037%=      5-min Rain = 0
KLD1 102240Z 11005KT 04/M10 A2982 RMK A01 T00411097  RH  037%=      5-min Rain = 0
KLD1 102245Z 11005KT 04/M10 A2982 RMK A01 T00421096  RH  036%=      5-min Rain = 0
KLD1 102250Z 11007KT 05/M10 A2981 RMK A01 T00461096  RH  035%=      5-min Rain = 0
KLD1 102255Z 11009KT 05/M10 A298 RMK A01 T00461097  RH  035%=      5-min Rain = 0
KLD1 102300Z 12008KT 05/M10 A298 RMK A01 T00471097  RH  035%=      5-min Rain = 0
KLD1 102305Z 11009KT 05/M10 A298 RMK A01 T00501097  RH  034%=      5-min Rain = 0
KLD1 102310Z 10008KT 05/M10 A298 RMK A01 T00481098  RH  034%=      5-min Rain = 0
KLD1 102315Z 10009KT 05/M10 A2979 RMK A01 T00451098  RH  035%=      5-min Rain = 0
KLD1 102320Z 11009KT 05/M10 A2979 RMK A01 T00461098  RH  035%=      5-min Rain = 0
KLD1 102325Z 12008KT 05/M10 A2979 RMK A01 T00501098  RH  034%=      5-min Rain = 0
KLD1 102330Z 13010KT 05/M10 A2979 RMK A01 T00501098  RH  034%=      5-min Rain = 0
KLD1 102335Z 13010KT 05/M10 A2979 RMK A01 T00491098  RH  034%=      5-min Rain = 0
KLD1 102340Z 12009KT 05/M10 A2979 RMK A01 T00501098  RH  034%=      5-min Rain = 0
KLD1 102345Z 13010KT 05/M10 A2979 RMK A01 T00491098  RH  034%=      5-min Rain = 0
KLD1 102350Z 14009KT 05/M10 A2979 RMK A01 T00481098  RH  034%=      5-min Rain = 0
KLD1 102355Z 13009KT 05/M10 A2979 RMK A01 T00471098  RH  035%=      5-min Rain = 0
KLD1 110000Z 12009KT 04/M10 A298 RMK A01 T00441098  RH  035%=      5-min Rain = 0
KLD1 110005Z 13009KT 04/M10 A2979 RMK A01 T00431098  RH  035%=      5-min Rain = 0
KLD1 110010Z 12010KT 04/M10 A2979 RMK A01 T00421098  RH  036%=      5-min Rain = 0
KLD1 110015Z 12010KT 04/M10 A2979 RMK A01 T00401098  RH  036%=      5-min Rain = 0
KLD1 110020Z 13010KT 04/M10 A2979 RMK A01 T00371099  RH  037%=      5-min Rain = 0
KLD1 110025Z 13009KT 04/M10 A2978 RMK A01 T00351099  RH  037%=      5-min Rain = 0
KLD1 110030Z 13009KT 03/M10 A2978 RMK A01 T00331100  RH  037%=      5-min Rain = 0
KLD1 110035Z 13010KT 03/M10 A2978 RMK A01 T00321100  RH  038%=      5-min Rain = 0
KLD1 110040Z 13009KT 03/M10 A2978 RMK A01 T00311100  RH  038%=      5-min Rain = 0
KLD1 110045Z 12008KT 03/M10 A2979 RMK A01 T00301100  RH  038%=      5-min Rain = 0
KLD1 110050Z 12008KT 03/M10 A2979 RMK A01 T00281100  RH  039%=      5-min Rain = 0
KLD1 110055Z 13008KT 03/M10 A2979 RMK A01 T00271100  RH  039%=      5-min Rain = 0
KLD1 110100Z 12007KT 03/M10 A2979 RMK A01 T00251100  RH  040%=      5-min Rain = 0
KLD1 110105Z 11008KT 02/M10 A298 RMK A01 T00241100  RH  040%=      5-min Rain = 0
KLD1 110110Z 10008KT 02/M10 A298 RMK A01 T00201100  RH  041%=      5-min Rain = 0
KLD1 110115Z 11007KT 02/M10 A298 RMK A01 T00191100  RH  042%=      5-min Rain = 0
KLD1 110120Z 11007KT 02/M10 A2981 RMK A01 T00171101  RH  042%=      5-min Rain = 0
KLD1 110125Z 10007KT 01/M10 A2981 RMK A01 T00131102  RH  043%=      5-min Rain = 0
KLD1 110130Z 10007KT 01/M10 A2981 RMK A01 T00091102  RH  044%=      5-min Rain = 0
KLD1 110135Z 10007KT 01/M10 A2981 RMK A01 T00081102  RH  044%=      5-min Rain = 0
KLD1 110140Z 09007KT 01/M10 A2982 RMK A01 T00051103  RH  045%=      5-min Rain = 0
KLD1 110145Z 10006KT 00/M10 A2982 RMK A01 T00031102  RH  046%=      5-min Rain = 0
KLD1 110150Z 10006KT 00/M10 A2983 RMK A01 T00021104  RH  045%=      5-min Rain = 0
KLD1 110155Z 10006KT 00/M11 A2983 RMK A01 T00011105  RH  045%=      5-min Rain = 0
KLD1 110200Z 09007KT M00/M11 A2983 RMK A01 T10031107  RH  046%=      5-min Rain = 0
KLD1 110205Z 09007KT M01/M11 A2983 RMK A01 T10051105  RH  047%=      5-min Rain = 0
KLD1 110210Z 08007KT M01/M11 A2984 RMK A01 T10061107  RH  047%=      5-min Rain = 0
KLD1 110215Z 08009KT M00/M11 A2984 RMK A01 T10041105  RH  047%=      5-min Rain = 0
KLD1 110220Z 08009KT 00/11 A2985 RMK A01 T00-00-106  RH  045%=      5-min Rain = 0
KLD1 110225Z 08010KT 00/M11 A2986 RMK A01 T00011106  RH  045%=      5-min Rain = 0
KLD1 110230Z 09010KT 00/11 A2986 RMK A01 T00-00-107  RH  045%=      5-min Rain = 0
KLD1 110235Z 09010KT M00/M11 A2987 RMK A01 T10011107  RH  045%=      5-min Rain = 0
KLD1 110240Z 09010KT M00/M11 A2987 RMK A01 T10011108  RH  045%=      5-min Rain = 0
KLD1 110245Z 08010KT M00/M11 A2987 RMK A01 T10031109  RH  045%=      5-min Rain = 0
KLD1 110250Z 08011KT M00/M11 A2988 RMK A01 T10031109  RH  045%=      5-min Rain = 0
KLD1 110255Z 08010KT M00/M11 A2988 RMK A01 T10041109  RH  046%=      5-min Rain = 0
KLD1 110300Z 08012KT M01/M11 A2988 RMK A01 T10051109  RH  046%=      5-min Rain = 0
KLD1 110305Z 08012KT M01/M11 A2989 RMK A01 T10051109  RH  046%=      5-min Rain = 0
KLD1 110310Z 08013KT M01/M11 A2989 RMK A01 T10051109  RH  046%=      5-min Rain = 0
KLD1 110315Z 08012KT M01/M11 A2989 RMK A01 T10061109  RH  046%=      5-min Rain = 0
KLD1 110320Z 08011KT M01/M11 A2989 RMK A01 T10071109  RH  046%=      5-min Rain = 0
KLD1 110325Z 09010KT M01/M11 A2989 RMK A01 T10081110  RH  047%=      5-min Rain = 0
KLD1 110330Z 08010KT M01/M11 A2989 RMK A01 T10091111  RH  047%=      5-min Rain = 0
KLD1 110335Z 08010KT M01/M11 A299 RMK A01 T10101111  RH  047%=      5-min Rain = 0
KLD1 110340Z 08011KT M01/M11 A299 RMK A01 T10111112  RH  047%=      5-min Rain = 0
KLD1 110345Z 08011KT M01/M11 A299 RMK A01 T10121111  RH  047%=      5-min Rain = 0
KLD1 110350Z 07013G19KT M01/M11 A299 RMK A01 T10131112  RH  048%=      5-min Rain = 0
KLD1 110355Z 06016KT M02/M11 A299 RMK A01 T10181114  RH  049%=      5-min Rain = 0
KLD1 110400Z 07014KT M02/M12 A2991 RMK A01 T10231115  RH  050%=      5-min Rain = 0
KLD1 110405Z 06013G19KT M03/M12 A2991 RMK A01 T10251115  RH  051%=      5-min Rain = 0
KLD1 110410Z 06012KT M03/M12 A2992 RMK A01 T10281115  RH  052%=      5-min Rain = 0
KLD1 110415Z 06013G18KT M03/M12 A2992 RMK A01 T10291115  RH  052%=      5-min Rain = 0
KLD1 110420Z 07017KT M03/M12 A2992 RMK A01 T10301115  RH  053%=      5-min Rain = 0
KLD1 110425Z 07014KT M03/M12 A2993 RMK A01 T10311116  RH  053%=      5-min Rain = 0
KLD1 110430Z 06015KT M03/M12 A2993 RMK A01 T10331116  RH  053%=      5-min Rain = 0
KLD1 110435Z 06012KT M04/M12 A2994 RMK A01 T10351117  RH  054%=      5-min Rain = 0
KLD1 110440Z 06012KT M04/M12 A2994 RMK A01 T10371118  RH  054%=      5-min Rain = 0
KLD1 110445Z 06011KT M04/M12 A2994 RMK A01 T10391118  RH  055%=      5-min Rain = 0
KLD1 110450Z 06011KT M04/M12 A2994 RMK A01 T10391118  RH  055%=      5-min Rain = 0
KLD1 110455Z 06011KT M04/M12 A2995 RMK A01 T10401118  RH  056%=      5-min Rain = 0
KLD1 110500Z 05012KT M04/M12 A2994 RMK A01 T10401117  RH  056%=      5-min Rain = 0
KLD1 110505Z 04012KT M04/M12 A2994 RMK A01 T10411118  RH  056%=      5-min Rain = 0
KLD1 110510Z 05012G17KT M04/M12 A2995 RMK A01 T10411118  RH  056%=      5-min Rain = 0
KLD1 110515Z 05014G19KT M04/M12 A2995 RMK A01 T10421118  RH  056%=      5-min Rain = 0
KLD1 110520Z 05016G21KT M04/M12 A2995 RMK A01 T10431119  RH  056%=      5-min Rain = 0
KLD1 110525Z 05017KT M05/M12 A2995 RMK A01 T10451120  RH  056%=      5-min Rain = 0
KLD1 110530Z 05017G22KT M05/M12 A2996 RMK A01 T10461121  RH  057%=      5-min Rain = 0
KLD1 110535Z 05017KT M05/M12 A2996 RMK A01 T10481122  RH  057%=      5-min Rain = 0
KLD1 110540Z 05016KT M05/M12 A2997 RMK A01 T10501123  RH  057%=      5-min Rain = 0
KLD1 110545Z 03016KT M06/M13 A2997 RMK A01 T10551128  RH  057%=      5-min Rain = 0
KLD1 110550Z 02016KT M06/M13 A2998 RMK A01 T10621131  RH  059%=      5-min Rain = 0
KLD1 110555Z 03017G22KT M07/M13 A2998 RMK A01 T10651131  RH  060%=      5-min Rain = 0

Page generated in 0.0331 seconds.